createdAt,value
2022-12-29T00:01:56.374Z,90.40
2022-12-29T00:04:59.778Z,90.80
2022-12-29T00:08:03.072Z,91.20
2022-12-29T00:11:08.123Z,90.50
2022-12-29T00:14:28.681Z,91.30
2022-12-29T00:17:32.310Z,92.10
2022-12-29T00:20:54.223Z,93.40
2022-12-29T00:24:23.487Z,92.20
2022-12-29T00:27:46.445Z,92.10
2022-12-29T00:31:11.299Z,91.90
2022-12-29T00:34:32.858Z,92.50
2022-12-29T00:37:50.293Z,92.70
2022-12-29T00:41:10.844Z,91.50
2022-12-29T00:44:16.624Z,91.60
2022-12-29T00:47:21.109Z,93.30
2022-12-29T00:50:24.884Z,93.80
2022-12-29T00:53:28.071Z,93.60
2022-12-29T00:56:31.617Z,94.10
2022-12-29T00:59:37.003Z,95.60
2022-12-29T01:02:40.353Z,95.70
2022-12-29T01:05:44.053Z,96.10
2022-12-29T01:08:47.317Z,96.10
2022-12-29T01:11:49.533Z,96.50
2022-12-29T01:14:54.089Z,96.60
2022-12-29T01:17:57.350Z,96.90
2022-12-29T01:21:03.205Z,97.00
2022-12-29T01:24:07.362Z,96.80
2022-12-29T01:27:10.547Z,96.50
2022-12-29T01:30:15.393Z,97.00
2022-12-29T01:33:18.639Z,95.00
2022-12-29T01:36:22.509Z,95.80
2022-12-29T01:39:25.868Z,94.60
2022-12-29T01:42:29.071Z,93.80
2022-12-29T01:45:33.681Z,93.20
2022-12-29T01:48:37.291Z,93.20
2022-12-29T01:51:43.266Z,92.00
2022-12-29T01:54:52.977Z,92.00
2022-12-29T01:58:00.962Z,91.00
2022-12-29T02:01:27.990Z,91.30
2022-12-29T02:04:34.651Z,91.10
2022-12-29T02:07:38.552Z,91.40
2022-12-29T02:10:42.574Z,91.20
2022-12-29T02:13:45.763Z,92.40
2022-12-29T02:17:04.861Z,93.10
2022-12-29T02:20:50.971Z,92.60
2022-12-29T02:24:25.429Z,93.40
2022-12-29T02:27:51.957Z,92.70
2022-12-29T02:31:10.495Z,93.00
2022-12-29T02:34:24.850Z,92.10
2022-12-29T02:37:33.310Z,93.40
2022-12-29T02:40:45.063Z,93.40
2022-12-29T02:43:55.037Z,94.70
2022-12-29T02:47:05.523Z,94.20
2022-12-29T02:50:15.690Z,94.20
2022-12-29T02:53:42.097Z,95.30
2022-12-29T02:56:45.345Z,95.60
2022-12-29T02:59:50.187Z,96.70
2022-12-29T03:03:21.197Z,97.50
2022-12-29T03:06:35.121Z,97.50
2022-12-29T03:09:45.722Z,96.40
2022-12-29T03:13:14.292Z,95.50
2022-12-29T03:16:25.223Z,96.50
2022-12-29T03:19:35.165Z,97.20
2022-12-29T03:22:43.584Z,97.30
2022-12-29T03:25:53.349Z,97.30
2022-12-29T03:28:58.441Z,96.30
2022-12-29T03:32:06.951Z,94.10
2022-12-29T03:35:15.230Z,93.80
2022-12-29T03:38:23.300Z,93.80
2022-12-29T03:41:31.079Z,94.80
2022-12-29T03:44:38.135Z,93.40
2022-12-29T03:47:41.539Z,93.10
2022-12-29T03:50:46.245Z,91.60
2022-12-29T03:53:49.425Z,90.20
2022-12-29T03:56:52.852Z,91.10
2022-12-29T04:00:17.374Z,92.50
2022-12-29T04:03:25.570Z,90.70
2022-12-29T04:06:30.360Z,91.90
2022-12-29T04:09:38.617Z,92.60
2022-12-29T04:12:42.606Z,92.80
2022-12-29T04:15:46.285Z,94.00
2022-12-29T04:18:50.621Z,93.40
2022-12-29T04:21:55.592Z,94.00
2022-12-29T04:24:58.811Z,92.80
2022-12-29T04:28:02.572Z,92.10
2022-12-29T04:31:44.310Z,91.50
2022-12-29T04:34:48.088Z,89.50
2022-12-29T04:37:54.551Z,85.20
2022-12-29T04:41:00.782Z,86.20
2022-12-29T04:44:04.490Z,85.10
2022-12-29T04:47:30.727Z,85.60
2022-12-29T04:50:52.973Z,82.10
2022-12-29T04:54:01.573Z,78.60
2022-12-29T04:57:06.024Z,80.00
2022-12-29T05:00:11.159Z,81.80
2022-12-29T05:03:14.766Z,77.10
2022-12-29T05:06:19.791Z,77.90
2022-12-29T05:09:25.157Z,77.90
2022-12-29T05:12:31.417Z,73.90
2022-12-29T05:15:36.521Z,74.30
2022-12-29T05:18:39.927Z,74.50
2022-12-29T05:21:45.004Z,78.70
2022-12-29T05:24:50.018Z,78.90
2022-12-29T05:27:53.417Z,77.40
2022-12-29T05:31:05.550Z,84.80
2022-12-29T05:34:09.145Z,90.50
2022-12-29T05:37:12.369Z,91.90
2022-12-29T05:40:19.118Z,93.60
2022-12-29T05:43:22.424Z,94.60
2022-12-29T05:46:49.177Z,99.60
2022-12-29T05:49:56.789Z,99.90
2022-12-29T05:53:28.554Z,99.90
2022-12-29T05:59:37.997Z,99.90
2022-12-29T06:02:42.048Z,99.90
2022-12-29T06:05:47.014Z,99.90
2022-12-29T06:08:52.131Z,95.50
2022-12-29T06:11:57.615Z,92.80
2022-12-29T06:15:00.842Z,90.30
2022-12-29T06:18:04.223Z,84.00
2022-12-29T06:21:08.031Z,72.60
2022-12-29T06:24:13.102Z,72.20
2022-12-29T06:27:17.861Z,66.00
2022-12-29T06:30:21.119Z,58.60
2022-12-29T06:33:24.989Z,54.00
2022-12-29T06:36:28.365Z,51.30
2022-12-29T06:39:31.693Z,49.50
2022-12-29T06:42:43.153Z,49.30
2022-12-29T06:46:03.117Z,51.30
2022-12-29T06:49:06.405Z,47.00
2022-12-29T06:52:13.019Z,46.80
2022-12-29T06:55:17.512Z,46.00
2022-12-29T07:01:25.863Z,45.00
2022-12-29T07:04:29.280Z,40.10
2022-12-29T07:07:32.603Z,36.30
2022-12-29T07:10:36.099Z,31.50
2022-12-29T07:13:41.795Z,27.30
2022-12-29T07:16:45.179Z,26.80
2022-12-29T07:19:48.502Z,24.40
2022-12-29T07:22:51.814Z,18.90
2022-12-29T07:26:02.085Z,16.80
2022-12-29T07:29:07.834Z,15.50
2022-12-29T07:32:11.320Z,14.30
2022-12-29T07:35:18.072Z,11.90
2022-12-29T07:38:23.034Z,10.50
2022-12-29T07:41:31.088Z,7.60
2022-12-29T07:44:43.640Z,9.20
2022-12-29T07:47:57.618Z,8.10
2022-12-29T07:51:01.313Z,6.70
2022-12-29T07:54:05.340Z,6.80
2022-12-29T07:57:10.607Z,1.00
2022-12-29T08:00:17.165Z,1.00
2022-12-29T08:03:20.671Z,2.50
2022-12-29T08:06:24.285Z,5.20
2022-12-29T08:09:28.298Z,6.20
2022-12-29T08:12:32.174Z,8.70
2022-12-29T08:18:40.725Z,6.90
2022-12-29T08:21:44.284Z,4.70
2022-12-29T08:24:47.466Z,5.60
2022-12-29T08:27:50.917Z,4.80
2022-12-29T08:30:56.278Z,5.80
2022-12-29T08:34:01.091Z,8.40
2022-12-29T08:37:04.856Z,12.40
2022-12-29T08:40:09.680Z,13.40
2022-12-29T08:43:15.558Z,9.60
2022-12-29T08:46:23.400Z,9.60
2022-12-29T08:49:27.296Z,5.40
2022-12-29T08:52:32.549Z,5.30
2022-12-29T08:58:45.596Z,3.80
2022-12-29T09:01:57.599Z,2.90
2022-12-29T09:05:05.354Z,3.50
2022-12-29T09:08:10.609Z,1.00
2022-12-29T09:11:19.845Z,1.30
2022-12-29T09:14:25.565Z,1.00
2022-12-29T09:18:00.708Z,1.00
2022-12-29T09:21:06.672Z,1.00
2022-12-29T09:24:10.435Z,1.00
2022-12-29T09:27:13.917Z,1.00
2022-12-29T09:30:25.441Z,1.00
2022-12-29T09:33:38.012Z,1.00
2022-12-29T09:36:45.806Z,1.00
2022-12-29T09:39:54.567Z,1.00
2022-12-29T09:43:16.675Z,1.00
2022-12-29T09:46:27.099Z,1.00
2022-12-29T09:49:40.861Z,1.00
2022-12-29T09:52:49.731Z,1.00
2022-12-29T09:55:56.726Z,1.00
2022-12-29T09:59:04.675Z,1.00
2022-12-29T10:02:22.727Z,1.00
2022-12-29T10:05:35.644Z,1.00
2022-12-29T10:08:45.645Z,1.00
2022-12-29T10:12:04.862Z,1.00
2022-12-29T10:15:16.039Z,1.00
2022-12-29T10:18:33.186Z,1.00
2022-12-29T10:21:53.292Z,1.00
2022-12-29T10:24:58.575Z,1.00
2022-12-29T10:28:06.402Z,1.00
2022-12-29T10:31:16.237Z,1.00
2022-12-29T10:34:27.395Z,1.00
2022-12-29T10:37:40.551Z,1.00
2022-12-29T10:40:48.709Z,1.00
2022-12-29T10:43:55.453Z,1.00
2022-12-29T10:47:02.688Z,1.00
2022-12-29T10:50:08.537Z,1.00
2022-12-29T10:53:20.948Z,1.00
2022-12-29T10:56:34.364Z,1.00
2022-12-29T10:59:39.110Z,1.00
2022-12-29T11:03:13.409Z,1.00
2022-12-29T11:06:23.900Z,1.00
2022-12-29T11:09:47.157Z,1.00
2022-12-29T11:13:04.198Z,1.00
2022-12-29T11:16:08.225Z,1.00
2022-12-29T11:19:23.808Z,1.00
2022-12-29T11:22:30.516Z,1.00
2022-12-29T11:25:35.749Z,1.00
2022-12-29T11:28:39.592Z,1.00
2022-12-29T11:31:44.655Z,1.00
2022-12-29T11:34:48.839Z,1.00
2022-12-29T11:38:00.350Z,1.00
2022-12-29T11:41:06.671Z,1.00
2022-12-29T11:44:15.869Z,1.00
2022-12-29T11:47:32.650Z,1.00
2022-12-29T11:50:39.795Z,1.00
2022-12-29T11:53:48.695Z,1.00
2022-12-29T11:56:54.791Z,1.00
2022-12-29T12:00:00.371Z,1.00
2022-12-29T12:03:06.184Z,1.00
2022-12-29T12:06:14.973Z,1.00
2022-12-29T12:09:25.825Z,1.00
2022-12-29T12:12:35.406Z,1.00
2022-12-29T12:15:46.672Z,1.00
2022-12-29T12:18:55.501Z,1.00
2022-12-29T12:22:05.346Z,1.00
2022-12-29T12:25:16.586Z,1.00
2022-12-29T12:28:36.468Z,1.00
2022-12-29T12:31:49.421Z,1.00
2022-12-29T12:34:54.939Z,1.00
2022-12-29T12:38:22.302Z,1.00
2022-12-29T12:41:36.737Z,1.00
2022-12-29T12:44:54.832Z,1.00
2022-12-29T12:48:12.038Z,1.00
2022-12-29T12:51:24.627Z,1.00
2022-12-29T12:54:45.024Z,1.00
2022-12-29T12:57:53.264Z,1.00
2022-12-29T13:01:14.255Z,1.00
2022-12-29T13:04:55.472Z,1.00
2022-12-29T13:08:28.053Z,1.00
2022-12-29T13:11:46.332Z,1.00
2022-12-29T13:15:01.937Z,1.00
2022-12-29T13:18:14.780Z,1.00
2022-12-29T13:21:29.494Z,1.00
2022-12-29T13:24:45.820Z,1.00
2022-12-29T13:27:58.198Z,1.00
2022-12-29T13:31:06.526Z,1.00
2022-12-29T13:34:22.881Z,1.00
2022-12-29T13:37:30.177Z,1.00
2022-12-29T13:40:39.785Z,1.00
2022-12-29T13:43:47.794Z,1.00
2022-12-29T13:46:52.043Z,1.00
2022-12-29T13:49:59.320Z,1.00
2022-12-29T13:53:13.599Z,1.00
2022-12-29T13:56:21.578Z,1.00
2022-12-29T13:59:39.615Z,1.00
2022-12-29T14:02:58.371Z,1.00
2022-12-29T14:06:23.802Z,1.00
2022-12-29T14:09:45.283Z,1.00
2022-12-29T14:12:49.904Z,1.00
2022-12-29T14:15:56.277Z,1.00
2022-12-29T14:19:07.873Z,1.00
2022-12-29T14:22:14.178Z,1.00
2022-12-29T14:25:50.904Z,1.00
2022-12-29T14:28:57.454Z,1.00
2022-12-29T14:32:03.484Z,1.00
2022-12-29T14:35:40.201Z,1.00
2022-12-29T14:38:49.167Z,1.00
2022-12-29T14:42:02.848Z,1.00
2022-12-29T14:45:26.397Z,1.00
2022-12-29T14:48:43.297Z,2.50
2022-12-29T14:51:47.365Z,1.00
2022-12-29T14:55:01.476Z,1.00
2022-12-29T14:58:13.656Z,2.20
2022-12-29T15:01:26.125Z,6.70
2022-12-29T15:04:34.664Z,7.30
2022-12-29T15:07:38.497Z,8.00
2022-12-29T15:10:51.902Z,8.40
2022-12-29T15:13:56.107Z,11.60
2022-12-29T15:16:59.848Z,9.30
2022-12-29T15:20:19.096Z,10.40
2022-12-29T15:23:22.983Z,8.60
2022-12-29T15:26:39.268Z,8.80
2022-12-29T15:29:44.326Z,9.20
2022-12-29T15:32:49.782Z,10.00
2022-12-29T15:35:54.558Z,11.60
2022-12-29T15:38:58.373Z,13.00
2022-12-29T15:42:13.461Z,14.80
2022-12-29T15:45:17.466Z,14.00
2022-12-29T15:48:23.911Z,12.00
2022-12-29T15:51:33.362Z,9.90
2022-12-29T15:54:37.306Z,10.40
2022-12-29T15:57:45.993Z,10.40
2022-12-29T16:00:50.566Z,9.60
2022-12-29T16:03:55.023Z,12.40
2022-12-29T16:07:00.002Z,12.50
2022-12-29T16:10:04.817Z,12.50
2022-12-29T16:13:35.512Z,13.90
2022-12-29T16:16:45.525Z,17.00
2022-12-29T16:19:53.739Z,17.00
2022-12-29T16:22:59.206Z,17.70
2022-12-29T16:26:02.874Z,17.60
2022-12-29T16:29:09.992Z,18.10
2022-12-29T16:32:28.144Z,17.10
2022-12-29T16:35:40.507Z,17.30
2022-12-29T16:38:44.174Z,16.70
2022-12-29T16:41:47.767Z,16.40
2022-12-29T16:45:03.312Z,15.10
2022-12-29T16:48:19.394Z,14.60
2022-12-29T16:51:31.501Z,15.90
2022-12-29T16:54:37.504Z,14.40
2022-12-29T16:57:40.982Z,18.30
2022-12-29T17:00:49.393Z,17.60
2022-12-29T17:03:55.940Z,20.00
2022-12-29T17:06:59.469Z,21.90
2022-12-29T17:10:03.021Z,24.00
2022-12-29T17:13:06.510Z,24.70
2022-12-29T17:16:13.435Z,23.50
2022-12-29T17:19:19.564Z,24.70
2022-12-29T17:22:26.518Z,25.20
2022-12-29T17:25:33.210Z,27.60
2022-12-29T17:28:37.099Z,29.00
2022-12-29T17:34:46.007Z,35.40
2022-12-29T17:37:50.127Z,39.20
2022-12-29T17:40:55.109Z,40.60
2022-12-29T17:44:01.097Z,44.60
2022-12-29T17:47:07.051Z,46.00
2022-12-29T17:50:14.906Z,47.10
2022-12-29T17:53:22.880Z,45.50
2022-12-29T17:56:27.080Z,47.30
2022-12-29T17:59:30.524Z,52.10
2022-12-29T18:02:35.814Z,55.10
2022-12-29T18:05:39.604Z,54.70
2022-12-29T18:08:44.162Z,54.10
2022-12-29T18:11:47.821Z,51.10
2022-12-29T18:14:51.989Z,53.20
2022-12-29T18:18:01.710Z,56.10
2022-12-29T18:21:05.863Z,57.40
2022-12-29T18:24:15.206Z,59.70
2022-12-29T18:27:22.402Z,60.00
2022-12-29T18:30:27.544Z,62.40
2022-12-29T18:33:35.412Z,62.40
2022-12-29T18:36:39.007Z,66.30
2022-12-29T18:39:42.737Z,70.10
2022-12-29T18:42:47.773Z,71.70
2022-12-29T18:45:51.928Z,72.00
2022-12-29T18:48:57.765Z,71.50
2022-12-29T18:52:01.434Z,70.20
2022-12-29T18:55:05.320Z,68.90
2022-12-29T18:58:08.997Z,65.40
2022-12-29T19:01:20.607Z,63.20
2022-12-29T19:04:28.215Z,63.50
2022-12-29T19:07:33.928Z,62.30
2022-12-29T19:10:39.051Z,59.60
2022-12-29T19:13:43.332Z,61.00
2022-12-29T19:16:48.630Z,62.50
2022-12-29T19:19:55.063Z,60.30
2022-12-29T19:23:00.110Z,63.10
2022-12-29T19:26:04.202Z,63.60
2022-12-29T19:29:09.324Z,64.40
2022-12-29T19:32:13.342Z,64.20
2022-12-29T19:35:18.386Z,66.80
2022-12-29T19:38:22.347Z,65.60
2022-12-29T19:41:25.920Z,66.00
2022-12-29T19:44:29.626Z,67.60
2022-12-29T19:47:33.230Z,66.90
2022-12-29T19:50:38.342Z,67.40
2022-12-29T19:53:41.836Z,68.80
2022-12-29T19:56:46.008Z,70.20
2022-12-29T19:59:50.352Z,71.50
2022-12-29T20:02:54.422Z,70.40
2022-12-29T20:05:59.586Z,72.50
2022-12-29T20:09:03.886Z,74.50
2022-12-29T20:12:07.901Z,76.80
2022-12-29T20:15:13.102Z,80.00
2022-12-29T20:18:25.183Z,81.10
2022-12-29T20:21:34.252Z,82.80
2022-12-29T20:24:39.090Z,82.70
2022-12-29T20:27:42.552Z,80.90
2022-12-29T20:30:47.393Z,80.90
2022-12-29T20:33:53.821Z,81.20
2022-12-29T20:36:59.187Z,81.90
2022-12-29T20:40:02.950Z,83.40
2022-12-29T20:43:06.708Z,84.60
2022-12-29T20:46:11.237Z,82.00
2022-12-29T20:49:16.687Z,82.10
2022-12-29T20:52:23.808Z,82.20
2022-12-29T20:55:27.837Z,77.80
2022-12-29T20:58:32.203Z,76.20
2022-12-29T21:01:37.790Z,81.50
2022-12-29T21:05:22.233Z,83.00
2022-12-29T21:08:12.584Z,87.50
2022-12-29T21:11:18.835Z,91.20
2022-12-29T21:14:25.667Z,92.50
2022-12-29T21:17:35.438Z,91.90
2022-12-29T21:20:42.878Z,90.30
2022-12-29T21:23:48.087Z,87.20
2022-12-29T21:26:54.524Z,83.10
2022-12-29T21:30:00.282Z,80.10
2022-12-29T21:33:04.195Z,80.10
2022-12-29T21:36:09.911Z,76.70
2022-12-29T21:39:16.515Z,75.80
2022-12-29T21:42:20.740Z,73.40
2022-12-29T21:45:32.111Z,74.50
2022-12-29T21:48:36.020Z,74.70
2022-12-29T21:51:54.492Z,77.80
2022-12-29T21:55:05.460Z,76.30
2022-12-29T21:58:27.213Z,75.70
2022-12-29T22:01:50.600Z,78.00
2022-12-29T22:05:11.360Z,79.00
2022-12-29T22:08:32.377Z,81.40
2022-12-29T22:11:54.468Z,82.50
2022-12-29T22:14:58.077Z,81.60
2022-12-29T22:18:02.617Z,81.50
2022-12-29T22:21:07.701Z,83.30
2022-12-29T22:24:11.336Z,83.70
2022-12-29T22:27:16.085Z,83.50
2022-12-29T22:30:21.073Z,81.80
2022-12-29T22:33:24.444Z,81.10
2022-12-29T22:36:30.036Z,80.40
2022-12-29T22:39:33.685Z,79.90
2022-12-29T22:42:38.994Z,78.70
2022-12-29T22:45:43.705Z,77.80
2022-12-29T22:48:47.691Z,79.90
2022-12-29T22:51:53.168Z,83.10
2022-12-29T22:55:00.308Z,82.80
2022-12-29T22:58:08.031Z,81.60
2022-12-29T23:01:12.449Z,78.80
2022-12-29T23:07:39.541Z,76.50
2022-12-29T23:10:42.957Z,75.20
2022-12-29T23:13:47.675Z,78.80
2022-12-29T23:16:51.270Z,79.30
2022-12-29T23:19:54.887Z,74.00
2022-12-29T23:22:58.418Z,74.30
2022-12-29T23:26:04.693Z,76.80
2022-12-29T23:29:11.874Z,80.40
2022-12-29T23:32:15.587Z,82.50
2022-12-29T23:35:18.897Z,81.00
2022-12-29T23:38:22.293Z,85.00
2022-12-29T23:41:26.081Z,84.60
2022-12-29T23:44:31.002Z,83.80
2022-12-29T23:47:34.447Z,80.20
2022-12-29T23:50:41.128Z,80.90
2022-12-29T23:53:48.441Z,79.60
2022-12-29T23:56:52.161Z,82.70
2022-12-29T23:59:56.825Z,81.90
